Time;durP1;ratioP1;P1;durP2;ratioP2;P2;SDS_P1;SDS_P2;PMS_P1;PMS_P2;Temp;Humidity;BMP_temperature;BMP_pressure;BME280_temperature;BME280_humidity;BME280_pressure;Samples;Min_cycle;Max_cycle;Signal;HPM_P1;HPM_P2
2021/09/07 00:00:58;;;;;;;1.95;1.27;;;17.90;72.80;;;;;;5096035;28;20027;-79
2021/09/07 00:03:23;;;;;;;1.30;1.08;;;17.90;72.80;;;;;;5096662;28;20016;-79
2021/09/07 00:05:49;;;;;;;1.90;1.20;;;17.90;72.60;;;;;;5114329;28;20135;-79
2021/09/07 00:08:14;;;;;;;2.17;1.30;;;17.90;72.50;;;;;;5114333;28;20020;-79
2021/09/07 00:10:40;;;;;;;1.88;1.38;;;18.00;72.50;;;;;;5114652;28;20047;-78
2021/09/07 00:13:05;;;;;;;1.85;1.25;;;18.00;72.60;;;;;;5114470;28;20019;-79
2021/09/07 00:15:31;;;;;;;1.70;1.20;;;18.10;72.60;;;;;;5096426;28;20023;-79
2021/09/07 00:17:56;;;;;;;1.23;0.98;;;18.10;72.50;;;;;;5113953;28;20369;-79
2021/09/07 00:20:23;;;;;;;0.95;0.82;;;18.10;72.40;;;;;;5113810;28;20380;-79
2021/09/07 00:22:49;;;;;;;1.20;1.10;;;18.10;72.40;;;;;;5114245;28;20110;-78
2021/09/07 00:25:14;;;;;;;1.88;1.05;;;18.20;72.50;;;;;;5096357;28;20420;-79
2021/09/07 00:27:40;;;;;;;1.33;1.20;;;18.20;72.50;;;;;;5114434;28;20019;-79
2021/09/07 00:30:06;;;;;;;1.30;0.98;;;18.20;72.40;;;;;;5114538;28;20024;-80
2021/09/07 00:32:32;;;;;;;1.85;1.05;;;18.30;72.40;;;;;;5114225;28;20404;-79
2021/09/07 00:34:57;;;;;;;1.80;1.13;;;18.30;72.40;;;;;;5114105;28;20020;-79
2021/09/07 00:37:23;;;;;;;1.70;1.13;;;18.30;72.40;;;;;;5096171;28;20039;-79
2021/09/07 00:39:48;;;;;;;1.63;1.13;;;18.30;72.50;;;;;;5114293;28;20016;-79
2021/09/07 00:42:15;;;;;;;1.50;1.23;;;18.30;72.50;;;;;;5114102;28;20032;-79
2021/09/07 00:44:40;;;;;;;1.15;1.02;;;18.30;72.60;;;;;;5114140;28;20387;-79
2021/09/07 00:47:06;;;;;;;1.35;1.10;;;18.30;72.50;;;;;;5113773;28;20019;-79
2021/09/07 00:49:32;;;;;;;1.73;1.35;;;18.40;72.50;;;;;;5113699;28;20028;-79
2021/09/07 00:51:58;;;;;;;1.63;1.17;;;18.40;72.50;;;;;;5114094;28;20027;-79
2021/09/07 00:54:28;;;;;;;2.25;1.50;;;18.40;72.50;;;;;;5114121;28;20016;-79
2021/09/07 00:56:55;;;;;;;1.90;1.30;;;18.40;72.40;;;;;;5113858;28;20059;-80
2021/09/07 00:59:21;;;;;;;1.52;1.13;;;18.40;72.50;;;;;;5114152;28;20031;-80
2021/09/07 01:01:48;;;;;;;2.58;1.20;;;18.40;72.50;;;;;;5114068;28;20019;-79
2021/09/07 01:04:13;;;;;;;1.80;1.58;;;18.40;72.50;;;;;;5113674;28;20027;-79
2021/09/07 01:06:39;;;;;;;1.65;1.13;;;18.50;72.60;;;;;;5114475;28;20024;-79
2021/09/07 01:09:06;;;;;;;1.88;1.30;;;18.40;72.60;;;;;;5114342;28;20047;-79
2021/09/07 01:11:32;;;;;;;1.60;1.38;;;18.40;72.70;;;;;;5116647;28;20487;-79
2021/09/07 01:13:58;;;;;;;1.60;1.33;;;18.40;72.80;;;;;;5117463;28;20480;-79
2021/09/07 01:16:24;;;;;;;1.73;1.23;;;18.40;72.80;;;;;;5117864;28;20108;-79
2021/09/07 01:18:49;;;;;;;2.17;1.33;;;18.40;72.90;;;;;;5117960;28;20024;-79
2021/09/07 01:21:16;;;;;;;2.00;1.40;;;18.40;73.00;;;;;;5099339;28;20031;-79
2021/09/07 01:23:45;;;;;;;1.77;1.38;;;18.40;73.00;;;;;;5117832;28;20030;-79
2021/09/07 01:26:12;;;;;;;1.40;1.27;;;18.40;73.00;;;;;;5117801;28;20033;-79
2021/09/07 01:28:37;;;;;;;1.08;1.00;;;18.40;73.00;;;;;;5117735;28;20430;-79
2021/09/07 01:31:05;;;;;;;1.67;1.23;;;18.40;73.10;;;;;;5117635;28;20488;-80
2021/09/07 01:33:30;;;;;;;1.30;1.20;;;18.40;73.20;;;;;;5116875;28;20047;-80
2021/09/07 01:36:00;;;;;;;1.60;1.20;;;18.40;73.20;;;;;;5117077;28;20480;-80
2021/09/07 01:38:26;;;;;;;1.23;1.13;;;18.40;73.20;;;;;;5117550;28;20145;-79
2021/09/07 01:40:52;;;;;;;1.30;1.20;;;18.30;73.10;;;;;;5117630;28;20024;-79
2021/09/07 01:43:18;;;;;;;1.33;1.17;;;18.40;73.20;;;;;;5117056;28;20071;-80
2021/09/07 01:45:45;;;;;;;1.67;1.35;;;18.30;73.20;;;;;;5117294;28;20468;-80
2021/09/07 01:48:12;;;;;;;1.65;1.23;;;18.30;73.30;;;;;;5117215;28;20019;-80
2021/09/07 01:50:37;;;;;;;1.27;1.10;;;18.30;73.40;;;;;;5117387;28;20107;-80
2021/09/07 01:53:03;;;;;;;1.50;1.20;;;18.20;73.40;;;;;;5117192;28;20104;-80
2021/09/07 01:55:29;;;;;;;2.17;1.50;;;18.20;73.40;;;;;;5117612;28;20023;-78
2021/09/07 01:57:54;;;;;;;2.42;1.67;;;18.10;73.50;;;;;;5099036;28;20024;-79
2021/09/07 02:00:19;;;;;;;1.65;1.30;;;18.10;73.60;;;;;;5117284;28;20077;-79
2021/09/07 02:02:45;;;;;;;2.20;1.50;;;18.00;73.60;;;;;;5098270;28;20027;-79
2021/09/07 02:05:10;;;;;;;2.03;1.42;;;18.00;73.70;;;;;;5098783;28;20030;-80
2021/09/07 02:07:36;;;;;;;1.38;1.27;;;18.00;73.80;;;;;;5116714;28;20020;-79
2021/09/07 02:10:02;;;;;;;2.22;1.42;;;18.00;73.70;;;;;;5116870;28;20024;-80
2021/09/07 02:12:28;;;;;;;1.60;1.50;;;18.00;73.70;;;;;;5116203;28;20024;-79
2021/09/07 02:14:54;;;;;;;0.95;0.95;;;18.00;73.70;;;;;;5098589;28;20015;-80
2021/09/07 02:17:19;;;;;;;2.28;1.48;;;18.00;73.70;;;;;;5116338;28;20027;-80
2021/09/07 02:19:45;;;;;;;1.88;1.20;;;18.00;73.70;;;;;;5116612;28;20365;-80
2021/09/07 02:22:11;;;;;;;2.13;1.30;;;18.00;73.70;;;;;;5115893;28;20444;-79
2021/09/07 02:24:36;;;;;;;2.28;1.80;;;18.10;73.70;;;;;;5116887;28;20028;-80
2021/09/07 02:27:02;;;;;;;1.88;1.30;;;18.10;73.60;;;;;;5117334;28;20031;-80
2021/09/07 02:29:28;;;;;;;0.90;0.90;;;18.20;73.60;;;;;;5116633;28;20031;-80
2021/09/07 02:31:53;;;;;;;1.90;1.25;;;18.20;73.50;;;;;;5115956;28;20065;-79
2021/09/07 02:34:19;;;;;;;1.33;1.20;;;18.20;73.50;;;;;;5116055;28;20044;-79
2021/09/07 02:36:44;;;;;;;1.70;1.30;;;18.20;73.60;;;;;;5116344;28;20472;-79
2021/09/07 02:39:11;;;;;;;1.17;1.08;;;18.20;73.70;;;;;;5097479;28;20051;-79
2021/09/07 02:41:38;;;;;;;1.40;1.27;;;18.20;73.70;;;;;;5116464;28;20066;-80
2021/09/07 02:44:03;;;;;;;1.88;1.17;;;18.20;73.70;;;;;;5097874;28;20043;-80
2021/09/07 02:46:30;;;;;;;1.77;1.23;;;18.20;74.40;;;;;;5115745;28;20416;-80
2021/09/07 02:48:56;;;;;;;2.20;1.33;;;18.20;73.70;;;;;;5116053;28;20030;-79
2021/09/07 02:51:21;;;;;;;1.77;1.25;;;18.20;73.80;;;;;;5115945;28;20103;-79
2021/09/07 02:53:47;;;;;;;1.65;1.15;;;18.20;73.70;;;;;;5097871;28;20540;-79
2021/09/07 02:56:12;;;;;;;1.20;1.10;;;18.20;73.80;;;;;;5116060;28;20031;-79
2021/09/07 02:58:38;;;;;;;1.40;1.30;;;18.20;73.70;;;;;;5097891;28;20479;-80
2021/09/07 03:01:03;;;;;;;2.50;1.50;;;18.20;73.80;;;;;;5115648;28;20042;-79
2021/09/07 03:03:29;;;;;;;1.98;1.50;;;18.20;73.80;;;;;;5097520;28;20024;-79
2021/09/07 03:05:55;;;;;;;1.10;1.00;;;18.20;73.90;;;;;;5115358;28;20039;-79
2021/09/07 03:08:20;;;;;;;1.67;1.33;;;18.20;74.00;;;;;;5115830;28;20032;-79
2021/09/07 03:10:46;;;;;;;1.65;0.95;;;18.20;73.90;;;;;;5115694;28;20412;-79
2021/09/07 03:13:11;;;;;;;1.70;1.20;;;18.20;73.90;;;;;;5115996;28;20047;-79
2021/09/07 03:15:39;;;;;;;1.98;1.23;;;18.20;73.90;;;;;;5114705;28;20067;-78
2021/09/07 03:18:05;;;;;;;1.23;1.13;;;18.20;73.90;;;;;;5115766;28;20452;-79
2021/09/07 03:20:30;;;;;;;1.20;1.20;;;18.20;73.90;;;;;;5097302;28;20051;-79
2021/09/07 03:22:56;;;;;;;1.35;1.20;;;18.20;74.00;;;;;;5115624;28;20095;-79
2021/09/07 03:25:21;;;;;;;2.50;1.55;;;18.10;73.90;;;;;;5115746;28;20023;-79
2021/09/07 03:27:47;;;;;;;2.15;1.52;;;18.10;74.00;;;;;;5115348;28;20027;-78
2021/09/07 03:30:12;;;;;;;1.25;1.00;;;18.10;74.00;;;;;;5115288;28;20048;-79
2021/09/07 03:32:39;;;;;;;1.48;1.10;;;18.10;74.10;;;;;;5096561;28;20541;-80
2021/09/07 03:35:06;;;;;;;1.63;1.48;;;18.10;74.20;;;;;;5096353;28;20031;-80
2021/09/07 03:37:31;;;;;;;1.20;1.10;;;18.00;74.20;;;;;;5115492;28;20035;-79
2021/09/07 03:39:57;;;;;;;1.45;1.05;;;18.00;74.30;;;;;;5115601;28;20019;-80
2021/09/07 03:42:22;;;;;;;2.13;1.38;;;18.00;74.30;;;;;;5115801;28;20030;-80
2021/09/07 03:44:48;;;;;;;2.05;1.73;;;18.00;74.30;;;;;;5114832;28;20472;-80
2021/09/07 03:47:13;;;;;;;2.25;1.70;;;18.00;74.30;;;;;;5115341;28;20065;-79
2021/09/07 03:49:40;;;;;;;2.40;1.75;;;18.00;74.40;;;;;;5115496;28;20054;-79
2021/09/07 03:52:06;;;;;;;1.80;1.42;;;18.00;74.50;;;;;;5114907;28;20028;-79
2021/09/07 03:54:32;;;;;;;2.38;1.70;;;17.90;74.50;;;;;;5115108;28;20030;-79
2021/09/07 03:56:57;;;;;;;1.83;1.40;;;17.80;74.60;;;;;;5114908;28;20031;-79
2021/09/07 03:59:23;;;;;;;1.70;1.40;;;17.80;74.70;;;;;;5114472;28;20026;-79
2021/09/07 04:01:48;;;;;;;1.58;1.15;;;17.80;74.70;;;;;;5095997;28;20050;-80
2021/09/07 04:04:16;;;;;;;1.98;1.48;;;17.80;74.80;;;;;;5114820;28;20048;-79
2021/09/07 04:06:42;;;;;;;2.83;1.67;;;17.80;74.80;;;;;;5114919;28;20110;-79
2021/09/07 04:09:07;;;;;;;1.60;1.50;;;17.70;74.80;;;;;;5114896;28;20528;-79
2021/09/07 04:11:33;;;;;;;1.48;1.05;;;17.70;74.90;;;;;;5096763;28;20027;-80
2021/09/07 04:13:58;;;;;;;1.60;1.48;;;17.60;75.00;;;;;;5113923;28;20031;-79
2021/09/07 04:16:24;;;;;;;2.30;1.40;;;17.60;75.00;;;;;;5114511;28;20092;-80
2021/09/07 04:18:49;;;;;;;1.92;1.73;;;17.50;75.00;;;;;;5114584;28;20102;-80
2021/09/07 04:21:16;;;;;;;1.35;1.25;;;17.50;75.10;;;;;;5114451;28;20104;-80
2021/09/07 04:23:41;;;;;;;3.03;2.15;;;17.50;75.20;;;;;;5096417;28;20004;-79
2021/09/07 04:26:07;;;;;;;1.80;1.52;;;17.40;75.20;;;;;;5114584;28;20102;-79
2021/09/07 04:28:32;;;;;;;3.10;2.20;;;17.30;75.90;;;;;;5113626;28;20023;-79
2021/09/07 04:30:58;;;;;;;3.15;2.05;;;17.30;75.50;;;;;;5114317;28;20062;-79
2021/09/07 04:33:24;;;;;;;2.00;1.60;;;17.20;75.50;;;;;;5096015;28;20135;-79
2021/09/07 04:35:49;;;;;;;1.73;1.50;;;17.10;75.60;;;;;;5114412;28;20027;-79
2021/09/07 04:38:15;;;;;;;2.75;2.00;;;17.10;76.30;;;;;;5114778;28;20404;-80
2021/09/07 04:40:40;;;;;;;3.33;1.95;;;17.00;75.80;;;;;;5114323;28;20518;-80
2021/09/07 04:43:06;;;;;;;1.95;1.60;;;17.00;76.60;;;;;;5113922;28;20024;-79
2021/09/07 04:45:31;;;;;;;2.78;1.77;;;16.90;76.00;;;;;;5115934;28;20019;-79
2021/09/07 04:47:57;;;;;;;1.90;1.50;;;16.90;76.00;;;;;;5118836;28;20460;-79
2021/09/07 04:50:22;;;;;;;2.15;1.58;;;16.90;76.10;;;;;;5118516;28;20395;-79
2021/09/07 04:52:48;;;;;;;1.98;1.63;;;16.90;76.10;;;;;;5117960;28;20016;-79
2021/09/07 04:55:13;;;;;;;3.28;1.73;;;16.90;76.10;;;;;;5117929;28;20424;-79
2021/09/07 04:57:39;;;;;;;2.05;1.83;;;16.80;76.10;;;;;;5117659;28;20031;-79
2021/09/07 05:00:05;;;;;;;3.92;1.77;;;16.80;76.10;;;;;;5118434;28;20479;-80
2021/09/07 05:02:34;;;;;;;2.40;1.73;;;16.80;76.20;;;;;;5118247;28;20392;-80
2021/09/07 05:05:06;;;;;;;2.35;2.10;;;16.70;76.20;;;;;;5118199;28;20073;-78
2021/09/07 05:07:31;;;;;;;2.15;1.95;;;16.70;76.20;;;;;;5118451;28;20015;-80
2021/09/07 05:09:57;;;;;;;2.85;2.03;;;16.70;76.20;;;;;;5117443;28;20018;-78
2021/09/07 05:12:25;;;;;;;2.83;1.85;;;16.80;76.20;;;;;;5118008;28;20474;-78
2021/09/07 05:14:51;;;;;;;3.10;1.98;;;16.80;76.20;;;;;;5117981;28;20080;-79
2021/09/07 05:17:16;;;;;;;2.05;1.63;;;16.80;76.10;;;;;;5117927;28;20468;-78
2021/09/07 05:19:42;;;;;;;2.15;1.50;;;16.80;76.00;;;;;;5099722;28;20023;-81
2021/09/07 05:22:07;;;;;;;2.10;1.55;;;16.90;76.00;;;;;;5117986;28;20077;-78
2021/09/07 05:24:33;;;;;;;2.47;1.70;;;16.90;75.90;;;;;;5116799;28;20468;-78
2021/09/07 05:26:58;;;;;;;2.00;1.50;;;16.90;76.00;;;;;;5099444;28;20383;-78
2021/09/07 05:29:24;;;;;;;2.55;1.60;;;16.90;76.00;;;;;;5117814;28;20031;-78
2021/09/07 05:31:49;;;;;;;2.97;1.77;;;16.90;76.10;;;;;;5117754;28;20128;-79
2021/09/07 05:34:16;;;;;;;2.63;1.83;;;16.90;76.00;;;;;;5117374;28;20400;-78
2021/09/07 05:36:42;;;;;;;2.97;2.10;;;16.90;76.00;;;;;;5117841;28;20038;-78
2021/09/07 05:39:07;;;;;;;2.85;1.90;;;16.90;76.10;;;;;;5116948;28;20095;-79
2021/09/07 05:41:33;;;;;;;1.65;1.55;;;16.90;76.00;;;;;;5117534;28;20031;-78
2021/09/07 05:43:58;;;;;;;2.38;1.70;;;16.90;76.00;;;;;;5099461;28;20358;-81
2021/09/07 05:46:24;;;;;;;3.50;1.90;;;16.90;76.00;;;;;;5117610;28;20024;-78
2021/09/07 05:48:49;;;;;;;2.28;1.75;;;16.90;76.00;;;;;;5117243;28;20027;-76
2021/09/07 05:51:15;;;;;;;1.88;1.67;;;16.90;76.10;;;;;;5116853;28;20031;-78
2021/09/07 05:53:40;;;;;;;2.58;1.40;;;16.90;76.20;;;;;;5116831;28;20069;-79
2021/09/07 05:56:06;;;;;;;2.17;1.60;;;16.90;76.10;;;;;;5117014;28;20042;-79
2021/09/07 05:58:32;;;;;;;1.85;1.60;;;17.00;76.20;;;;;;5098096;28;20058;-80
2021/09/07 06:00:57;;;;;;;1.70;1.42;;;17.00;76.10;;;;;;5098772;28;20031;-77
2021/09/07 06:03:23;;;;;;;2.78;1.95;;;17.00;76.00;;;;;;5116972;28;20043;-78
2021/09/07 06:05:48;;;;;;;2.90;1.50;;;17.00;76.00;;;;;;5117587;28;20024;-76
2021/09/07 06:08:14;;;;;;;1.60;1.50;;;17.00;76.10;;;;;;5116414;28;20020;-81
2021/09/07 06:10:39;;;;;;;2.47;1.65;;;17.00;76.10;;;;;;5116951;28;20023;-81
2021/09/07 06:13:05;;;;;;;2.22;1.70;;;17.10;76.20;;;;;;5116981;28;20112;-82
2021/09/07 06:15:32;;;;;;;2.28;1.75;;;17.10;76.10;;;;;;5098727;28;20020;-82
2021/09/07 06:17:57;;;;;;;2.08;1.52;;;17.10;76.00;;;;;;5098305;28;20053;-82
2021/09/07 06:20:23;;;;;;;2.53;1.80;;;17.20;75.90;;;;;;5116923;28;20031;-82
2021/09/07 06:22:49;;;;;;;1.35;1.13;;;17.30;75.80;;;;;;5116465;28;20521;-82
2021/09/07 06:25:15;;;;;;;1.60;1.42;;;17.50;75.60;;;;;;5117077;28;20073;-81
2021/09/07 06:27:40;;;;;;;1.80;1.40;;;17.60;75.40;;;;;;5116900;28;20026;-82
2021/09/07 06:30:06;;;;;;;1.95;1.40;;;17.70;75.60;;;;;;5117442;28;20066;-80
2021/09/07 06:32:32;;;;;;;2.25;1.33;;;17.90;75.10;;;;;;5098264;28;20088;-81
2021/09/07 06:35:00;;;;;;;2.28;1.33;;;18.00;75.00;;;;;;5098472;28;20019;-78
2021/09/07 06:37:26;;;;;;;1.65;1.20;;;18.20;74.90;;;;;;5097977;28;20035;-79
2021/09/07 06:39:52;;;;;;;2.00;1.33;;;18.30;74.80;;;;;;5117014;28;20019;-85
2021/09/07 06:42:17;;;;;;;1.77;1.33;;;18.40;74.70;;;;;;5097750;28;20459;-77
2021/09/07 06:44:43;;;;;;;1.73;1.20;;;18.60;74.60;;;;;;5097880;28;20024;-79
2021/09/07 06:47:08;;;;;;;2.42;1.75;;;18.70;74.50;;;;;;5116121;28;20023;-80
2021/09/07 06:49:34;;;;;;;1.40;1.17;;;18.80;74.30;;;;;;5116391;28;20495;-80
2021/09/07 06:51:59;;;;;;;1.20;1.10;;;18.90;74.20;;;;;;5097721;28;20096;-81
2021/09/07 06:54:25;;;;;;;1.30;1.20;;;19.10;74.20;;;;;;5097985;28;20085;-81
2021/09/07 06:56:50;;;;;;;1.63;1.40;;;19.20;74.10;;;;;;5116302;28;20034;-80
2021/09/07 06:59:16;;;;;;;1.92;1.40;;;19.30;74.00;;;;;;5115830;28;20020;-81
2021/09/07 07:01:42;;;;;;;1.70;1.30;;;19.40;74.00;;;;;;5116123;28;20368;-81
2021/09/07 07:04:07;;;;;;;1.77;1.10;;;19.50;74.00;;;;;;5115872;28;20503;-80
2021/09/07 07:06:33;;;;;;;1.55;1.20;;;19.50;74.00;;;;;;5097448;28;20031;-83
2021/09/07 07:08:58;;;;;;;1.60;1.33;;;19.60;74.10;;;;;;5115599;28;20028;-82
2021/09/07 07:11:24;;;;;;;2.25;1.73;;;19.70;74.00;;;;;;5115954;28;20028;-81
2021/09/07 07:13:49;;;;;;;2.22;1.55;;;19.80;73.90;;;;;;5096845;28;20026;-83
2021/09/07 07:16:15;;;;;;;3.30;2.05;;;19.90;73.90;;;;;;5115694;28;20036;-80
2021/09/07 07:18:40;;;;;;;2.78;2.00;;;20.00;74.00;;;;;;5115453;28;20023;-80
2021/09/07 07:21:06;;;;;;;2.30;1.70;;;20.10;74.00;;;;;;5115008;28;20032;-80
2021/09/07 07:23:31;;;;;;;1.98;1.60;;;20.10;73.90;;;;;;5115589;28;20020;-79
2021/09/07 07:25:57;;;;;;;2.88;1.65;;;20.20;73.80;;;;;;5115439;28;20069;-78
2021/09/07 07:28:22;;;;;;;1.67;1.38;;;20.30;73.80;;;;;;5097471;28;20081;-79
2021/09/07 07:30:48;;;;;;;1.95;1.38;;;20.40;73.70;;;;;;5115466;28;20058;-80
2021/09/07 07:33:14;;;;;;;1.60;1.10;;;20.40;73.80;;;;;;5115460;28;20047;-79
2021/09/07 07:35:40;;;;;;;2.95;1.90;;;20.50;73.80;;;;;;5114572;28;20034;-78
2021/09/07 07:38:07;;;;;;;2.58;1.60;;;20.60;73.80;;;;;;5096887;28;20028;-79
2021/09/07 07:40:33;;;;;;;1.90;1.38;;;20.60;73.60;;;;;;5114626;28;20012;-76
2021/09/07 07:42:59;;;;;;;1.77;1.60;;;20.70;73.60;;;;;;5114835;28;20027;-77
2021/09/07 07:45:25;;;;;;;2.30;1.83;;;20.80;73.50;;;;;;5114591;28;20030;-77
2021/09/07 07:47:51;;;;;;;3.70;1.67;;;20.80;73.50;;;;;;5096575;28;20011;-77
2021/09/07 07:50:16;;;;;;;2.58;1.67;;;20.90;73.40;;;;;;5114266;28;20160;-77
2021/09/07 07:52:42;;;;;;;2.72;1.83;;;20.90;73.40;;;;;;5115028;28;20047;-77
2021/09/07 07:55:08;;;;;;;1.92;1.60;;;21.00;73.30;;;;;;5114645;28;20472;-77
2021/09/07 07:57:33;;;;;;;3.35;2.10;;;21.10;73.20;;;;;;5114578;28;20100;-77
2021/09/07 07:59:59;;;;;;;2.33;1.70;;;21.20;73.10;;;;;;5114707;28;20468;-77
2021/09/07 08:02:24;;;;;;;2.08;1.50;;;21.30;73.10;;;;;;5114449;28;20537;-77
2021/09/07 08:04:50;;;;;;;2.92;1.67;;;21.40;73.00;;;;;;5095961;28;20046;-77
2021/09/07 08:07:15;;;;;;;2.60;1.80;;;21.40;72.90;;;;;;5096090;28;20060;-77
2021/09/07 08:09:41;;;;;;;2.10;1.48;;;21.50;72.90;;;;;;5114435;28;20027;-77
2021/09/07 08:12:07;;;;;;;2.33;1.73;;;21.50;72.80;;;;;;5114613;28;20027;-77
2021/09/07 08:14:32;;;;;;;2.75;1.65;;;21.60;72.80;;;;;;5114548;28;20028;-77
2021/09/07 08:16:58;;;;;;;1.35;1.20;;;21.70;72.70;;;;;;5114545;28;20069;-78
2021/09/07 08:19:23;;;;;;;1.95;1.40;;;21.80;72.70;;;;;;5113936;28;20072;-78
2021/09/07 08:21:49;;;;;;;1.90;1.30;;;21.90;72.60;;;;;;5114052;28;20024;-78
2021/09/07 08:24:14;;;;;;;1.88;1.45;;;22.00;72.50;;;;;;5096843;28;20085;-77
2021/09/07 08:26:40;;;;;;;2.15;1.52;;;22.10;72.40;;;;;;5114177;28;20034;-76
2021/09/07 08:29:05;;;;;;;2.53;1.67;;;22.10;72.30;;;;;;5114270;28;20099;-76
2021/09/07 08:31:31;;;;;;;1.45;1.30;;;22.20;72.30;;;;;;5114388;28;20016;-75
2021/09/07 08:33:56;;;;;;;1.77;1.58;;;22.30;72.30;;;;;;5113130;28;20538;-78
2021/09/07 08:36:22;;;;;;;2.70;1.80;;;22.40;72.30;;;;;;5113869;28;20032;-75
2021/09/07 08:38:47;;;;;;;1.83;1.58;;;22.40;72.20;;;;;;5114026;28;20016;-76
2021/09/07 08:41:19;;;;;;;2.20;1.85;;;22.50;72.10;;;;;;5114037;28;20050;-76
2021/09/07 08:43:49;;;;;;;2.75;1.48;;;22.60;72.00;;;;;;5113998;28;20027;-76
2021/09/07 08:46:16;;;;;;;1.92;1.67;;;22.70;72.00;;;;;;5114225;28;20061;-77
2021/09/07 08:48:43;;;;;;;2.13;1.65;;;22.70;72.00;;;;;;5113881;28;20372;-75
2021/09/07 08:51:08;;;;;;;2.17;1.45;;;22.80;71.90;;;;;;5114087;28;20091;-75
2021/09/07 08:53:34;;;;;;;1.88;1.35;;;22.90;71.90;;;;;;5113582;28;20504;-76
2021/09/07 08:55:59;;;;;;;2.72;2.10;;;23.00;72.00;;;;;;5113486;28;20047;-76
2021/09/07 08:58:25;;;;;;;3.17;1.65;;;23.00;71.90;;;;;;5113366;28;20015;-75
2021/09/07 09:00:50;;;;;;;1.75;1.38;;;23.10;71.90;;;;;;5113592;28;20016;-75
2021/09/07 09:03:16;;;;;;;1.95;1.73;;;23.10;71.90;;;;;;5094803;28;20400;-75
2021/09/07 09:05:45;;;;;;;2.70;1.83;;;23.10;72.00;;;;;;5113446;28;20026;-75
2021/09/07 09:08:23;;;;;;;2.23;1.90;;;23.10;72.00;;;;;;5113512;28;20098;-75
2021/09/07 09:11:09;;;;;;;1.95;1.38;;;23.10;72.00;;;;;;5095133;28;20016;-75
2021/09/07 09:13:48;;;;;;;2.42;1.60;;;23.00;72.10;;;;;;5113365;28;20034;-75
2021/09/07 09:16:16;;;;;;;4.10;1.88;;;23.00;72.20;;;;;;5113587;28;20111;-76
2021/09/07 09:18:43;;;;;;;3.28;1.90;;;22.90;72.50;;;;;;5094810;28;20024;-74
2021/09/07 09:21:32;;;;;;;3.45;2.80;;;22.90;72.50;;;;;;5113187;28;20020;-75
2021/09/07 09:24:18;;;;;;;2.25;1.67;;;22.90;72.50;;;;;;5113760;28;20022;-75
2021/09/07 09:27:01;;;;;;;2.42;1.70;;;23.00;72.40;;;;;;5113844;28;20027;-74
2021/09/07 09:29:29;;;;;;;2.58;1.83;;;23.00;72.30;;;;;;5113721;28;20019;-74
2021/09/07 09:32:02;;;;;;;2.17;1.88;;;22.90;72.40;;;;;;5114944;28;20019;-75
2021/09/07 09:34:29;;;;;;;2.05;1.63;;;22.90;72.30;;;;;;5117261;28;20437;-77
2021/09/07 09:37:03;;;;;;;2.20;1.60;;;22.90;72.40;;;;;;5117226;28;20413;-74
2021/09/07 09:39:49;;;;;;;2.70;1.73;;;23.00;72.40;;;;;;5117148;28;20019;-73
2021/09/07 09:42:43;;;;;;;3.35;1.90;;;23.00;72.10;;;;;;5117423;28;20035;-74
2021/09/07 09:45:09;;;;;;;2.42;1.67;;;23.10;72.00;;;;;;5113637;28;20502;-73
2021/09/07 09:47:40;;;;;;;2.40;1.90;;;23.10;72.00;;;;;;5116532;28;20093;-75
2021/09/07 09:50:06;;;;;;;2.90;2.03;;;23.20;71.90;;;;;;5116790;28;20428;-74
2021/09/07 09:52:35;;;;;;;2.42;1.90;;;23.20;71.80;;;;;;5116895;28;20016;-73
2021/09/07 09:55:01;;;;;;;3.10;1.73;;;23.30;71.60;;;;;;5117231;28;20023;-74
2021/09/07 09:57:27;;;;;;;2.75;1.80;;;23.30;71.50;;;;;;5116854;28;20090;-74
2021/09/07 09:59:55;;;;;;;3.42;2.20;;;23.30;71.50;;;;;;5116354;28;20074;-74
2021/09/07 10:02:21;;;;;;;3.72;1.90;;;23.40;71.30;;;;;;5116610;28;20495;-74
2021/09/07 10:04:47;;;;;;;2.42;1.85;;;23.50;71.30;;;;;;5116567;28;20081;-74
2021/09/07 10:07:14;;;;;;;2.00;1.63;;;23.50;71.30;;;;;;5117099;28;20039;-75
2021/09/07 10:09:41;;;;;;;1.95;1.48;;;23.60;71.10;;;;;;5116631;28;20032;-74
2021/09/07 10:12:21;;;;;;;2.53;2.10;;;23.70;71.00;;;;;;5116703;28;20595;-74
2021/09/07 10:15:12;;;;;;;1.80;1.48;;;23.80;70.90;;;;;;5115950;28;20073;-75
2021/09/07 10:17:45;;;;;;;2.42;1.70;;;23.90;70.90;;;;;;5116526;28;20032;-75
2021/09/07 10:25:52;;;;;;;3.33;1.77;;;24.10;70.90;;;;;;5116323;28;20387;-74
2021/09/07 10:28:42;;;;;;;2.67;1.60;;;24.10;70.70;;;;;;5097893;28;20380;-74
2021/09/07 10:31:21;;;;;;;2.15;1.83;;;24.30;70.50;;;;;;5115673;28;20372;-75
2021/09/07 10:34:02;;;;;;;1.38;1.27;;;24.40;70.30;;;;;;5097821;28;20067;-75
2021/09/07 10:36:35;;;;;;;1.55;1.33;;;24.40;70.30;;;;;;5115959;28;20120;-75
2021/09/07 10:39:02;;;;;;;1.90;1.63;;;24.50;70.20;;;;;;5115873;28;20020;-75
2021/09/07 10:41:34;;;;;;;2.05;1.58;;;24.60;70.10;;;;;;5115852;28;20468;-75
2021/09/07 10:44:23;;;;;;;3.28;1.98;;;24.60;70.00;;;;;;5114797;28;20016;-75
2021/09/07 10:46:55;;;;;;;2.13;1.90;;;24.60;70.10;;;;;;5115856;28;20416;-75
2021/09/07 10:49:40;;;;;;;2.13;1.67;;;24.60;70.10;;;;;;5115766;28;20103;-75
2021/09/07 10:52:08;;;;;;;1.83;1.33;;;24.60;70.00;;;;;;5115670;28;20503;-75
2021/09/07 10:54:42;;;;;;;1.98;1.50;;;24.70;70.70;;;;;;5115717;28;20375;-75
2021/09/07 10:57:08;;;;;;;2.58;2.08;;;24.80;70.00;;;;;;5115637;28;20035;-75
2021/09/07 10:59:50;;;;;;;2.92;1.90;;;24.70;69.80;;;;;;5115113;28;20100;-75
2021/09/07 11:02:38;;;;;;;2.80;1.70;;;24.70;69.90;;;;;;5115583;28;20039;-75
2021/09/07 11:05:06;;;;;;;2.25;1.50;;;24.60;70.00;;;;;;5097300;28;20415;-75
2021/09/07 11:07:40;;;;;;;1.67;1.45;;;24.60;70.00;;;;;;5115681;28;20073;-75
2021/09/07 11:10:18;;;;;;;1.80;1.40;;;24.70;69.90;;;;;;5115290;28;20031;-73
2021/09/07 11:12:51;;;;;;;2.03;1.75;;;24.80;69.80;;;;;;5114907;28;20081;-74
2021/09/07 11:15:23;;;;;;;2.35;1.85;;;24.90;69.60;;;;;;5115276;28;20020;-75
2021/09/07 11:17:57;;;;;;;2.60;2.17;;;24.90;69.40;;;;;;5115460;28;20372;-74
2021/09/07 11:20:27;;;;;;;2.35;1.80;;;24.90;69.40;;;;;;5115414;28;20051;-74
2021/09/07 11:22:54;;;;;;;3.00;2.13;;;24.90;69.40;;;;;;5114994;28;20031;-75
2021/09/07 11:25:22;;;;;;;2.67;2.00;;;24.90;69.30;;;;;;5115047;28;20023;-75
2021/09/07 11:28:02;;;;;;;2.05;1.70;;;24.90;69.30;;;;;;5114526;28;20073;-75
2021/09/07 11:30:35;;;;;;;2.35;1.90;;;24.90;69.40;;;;;;5115145;28;20526;-75
2021/09/07 11:33:33;;;;;;;2.55;1.63;;;24.90;69.40;;;;;;5114652;28;20048;-76
2021/09/07 11:36:17;;;;;;;1.80;1.50;;;24.90;69.40;;;;;;5114631;28;20042;-75
2021/09/07 11:38:51;;;;;;;2.67;1.63;;;25.00;69.30;;;;;;5114977;28;20022;-74
2021/09/07 11:41:18;;;;;;;1.50;1.30;;;25.00;69.20;;;;;;5115002;28;20028;-74
2021/09/07 11:43:57;;;;;;;1.70;1.50;;;25.10;69.10;;;;;;5114136;28;20024;-73
2021/09/07 11:46:35;;;;;;;1.87;1.67;;;25.20;68.90;;;;;;5114846;28;20077;-76
2021/09/07 11:49:04;;;;;;;2.45;1.90;;;25.30;68.90;;;;;;5114258;28;20020;-74
2021/09/07 11:51:33;;;;;;;3.28;2.05;;;25.30;68.80;;;;;;5114557;28;20027;-75
2021/09/07 11:54:00;;;;;;;;;;;25.30;68.80;;;;;;5114818;28;20027;-74
2021/09/07 11:56:30;;;;;;;2.03;1.48;;;25.30;69.00;;;;;;5114088;28;19912;-74
2021/09/07 11:59:11;;;;;;;2.97;2.03;;;25.40;68.90;;;;;;5114626;28;20023;-75
2021/09/07 12:01:41;;;;;;;3.03;1.95;;;25.60;68.60;;;;;;5096262;28;20040;-76
2021/09/07 12:04:07;;;;;;;2.70;1.85;;;25.60;68.50;;;;;;5114590;28;20063;-75
2021/09/07 12:06:38;;;;;;;2.20;1.92;;;25.70;68.50;;;;;;5114564;28;20510;-75
2021/09/07 12:09:16;;;;;;;2.15;1.70;;;25.70;68.30;;;;;;5114380;28;20024;-75
2021/09/07 12:11:44;;;;;;;2.20;1.50;;;25.80;68.30;;;;;;5114009;28;20076;-76
2021/09/07 12:14:22;;;;;;;2.40;1.92;;;25.90;68.30;;;;;;5114226;28;20261;-75
2021/09/07 12:16:51;;;;;;;2.50;1.58;;;26.00;68.30;;;;;;5114331;28;20443;-76
2021/09/07 12:19:41;;;;;;;1.70;1.52;;;26.10;68.20;;;;;;5114361;28;20015;-75
2021/09/07 12:22:27;;;;;;;2.78;2.25;;;26.20;68.20;;;;;;5114097;28;20023;-75
2021/09/07 12:25:06;;;;;;;4.10;2.53;;;26.30;67.90;;;;;;5113821;28;20533;-74
2021/09/07 12:27:58;;;;;;;3.58;2.58;;;26.50;67.60;;;;;;5095918;28;20043;-74
2021/09/07 12:30:32;;;;;;;2.80;2.08;;;26.70;67.50;;;;;;5114297;28;20016;-74
2021/09/07 12:33:00;;;;;;;3.33;1.92;;;26.80;67.30;;;;;;5113963;28;20050;-74
2021/09/07 12:35:51;;;;;;;2.60;2.28;;;27.00;67.20;;;;;;5114198;28;20028;-74
2021/09/07 12:38:25;;;;;;;3.13;1.95;;;27.30;67.00;;;;;;5113885;28;20028;-73
2021/09/07 12:40:56;;;;;;;1.45;1.30;;;27.60;66.60;;;;;;5113678;28;20026;-74
2021/09/07 12:43:24;;;;;;;2.47;1.70;;;27.80;66.30;;;;;;5114305;28;20032;-74
2021/09/07 12:45:52;;;;;;;2.97;2.67;;;28.10;66.00;;;;;;5113878;28;20040;-74
2021/09/07 12:48:18;;;;;;;2.60;2.15;;;28.30;65.80;;;;;;5114219;28;20153;-74
2021/09/07 12:50:45;;;;;;;2.72;1.80;;;28.50;65.70;;;;;;5113854;28;20077;-73
2021/09/07 12:53:10;;;;;;;1.73;1.60;;;28.60;65.60;;;;;;5113353;28;20038;-74
2021/09/07 12:55:37;;;;;;;2.03;1.77;;;28.60;65.50;;;;;;5113222;28;20035;-74
2021/09/07 12:58:07;;;;;;;1.95;1.75;;;28.70;65.20;;;;;;5113829;28;20012;-74